sensor_id;sensor_type;location;lat;lon;timestamp;P1;durP1;ratioP1;P2;durP2;ratioP2
76723;SDS011;65650;53.126;17.950;2022-12-18T00:02:09;34.80;;;11.00;;
76723;SDS011;65650;53.126;17.950;2022-12-18T00:04:39;33.10;;;10.40;;
76723;SDS011;65650;53.126;17.950;2022-12-18T00:07:06;39.90;;;15.30;;
76723;SDS011;65650;53.126;17.950;2022-12-18T00:09:32;28.20;;;9.70;;
76723;SDS011;65650;53.126;17.950;2022-12-18T00:11:59;47.70;;;14.90;;
76723;SDS011;65650;53.126;17.950;2022-12-18T00:14:25;30.30;;;11.10;;
76723;SDS011;65650;53.126;17.950;2022-12-18T00:16:52;47.20;;;15.60;;
76723;SDS011;65650;53.126;17.950;2022-12-18T00:19:18;24.90;;;7.90;;
76723;SDS011;65650;53.126;17.950;2022-12-18T00:21:45;35.50;;;11.00;;
76723;SDS011;65650;53.126;17.950;2022-12-18T00:24:11;35.90;;;11.80;;
76723;SDS011;65650;53.126;17.950;2022-12-18T00:26:38;30.90;;;9.80;;
76723;SDS011;65650;53.126;17.950;2022-12-18T00:29:09;33.00;;;11.10;;
76723;SDS011;65650;53.126;17.950;2022-12-18T00:31:36;42.90;;;12.80;;
76723;SDS011;65650;53.126;17.950;2022-12-18T00:34:03;50.00;;;16.30;;
76723;SDS011;65650;53.126;17.950;2022-12-18T00:36:30;34.90;;;11.90;;
76723;SDS011;65650;53.126;17.950;2022-12-18T00:38:58;31.70;;;10.60;;
76723;SDS011;65650;53.126;17.950;2022-12-18T00:41:25;29.10;;;10.40;;
76723;SDS011;65650;53.126;17.950;2022-12-18T00:44:12;41.50;;;12.70;;
76723;SDS011;65650;53.126;17.950;2022-12-18T00:46:39;41.80;;;13.00;;
76723;SDS011;65650;53.126;17.950;2022-12-18T00:49:06;36.90;;;12.40;;
76723;SDS011;65650;53.126;17.950;2022-12-18T00:51:34;35.40;;;9.50;;
76723;SDS011;65650;53.126;17.950;2022-12-18T00:54:00;42.70;;;13.70;;
76723;SDS011;65650;53.126;17.950;2022-12-18T00:56:27;39.70;;;11.60;;
76723;SDS011;65650;53.126;17.950;2022-12-18T00:58:53;40.60;;;13.10;;
76723;SDS011;65650;53.126;17.950;2022-12-18T01:01:20;44.30;;;12.70;;
76723;SDS011;65650;53.126;17.950;2022-12-18T01:03:46;35.30;;;13.50;;
76723;SDS011;65650;53.126;17.950;2022-12-18T01:06:13;38.90;;;12.70;;
76723;SDS011;65650;53.126;17.950;2022-12-18T01:08:40;29.20;;;9.40;;
76723;SDS011;65650;53.126;17.950;2022-12-18T01:11:07;45.50;;;14.50;;
76723;SDS011;65650;53.126;17.950;2022-12-18T01:13:33;48.50;;;20.70;;
76723;SDS011;65650;53.126;17.950;2022-12-18T01:16:00;34.90;;;12.00;;
76723;SDS011;65650;53.126;17.950;2022-12-18T01:18:26;21.50;;;7.40;;
76723;SDS011;65650;53.126;17.950;2022-12-18T01:20:53;19.40;;;5.80;;
76723;SDS011;65650;53.126;17.950;2022-12-18T01:23:19;24.90;;;8.00;;
76723;SDS011;65650;53.126;17.950;2022-12-18T01:25:46;26.10;;;9.60;;
76723;SDS011;65650;53.126;17.950;2022-12-18T01:28:12;22.80;;;8.50;;
76723;SDS011;65650;53.126;17.950;2022-12-18T01:30:39;21.40;;;8.20;;
76723;SDS011;65650;53.126;17.950;2022-12-18T01:33:05;23.00;;;7.00;;
76723;SDS011;65650;53.126;17.950;2022-12-18T01:35:31;23.40;;;8.20;;
76723;SDS011;65650;53.126;17.950;2022-12-18T01:37:58;37.30;;;11.50;;
76723;SDS011;65650;53.126;17.950;2022-12-18T01:40:24;31.80;;;10.30;;
76723;SDS011;65650;53.126;17.950;2022-12-18T01:42:52;30.70;;;10.80;;
76723;SDS011;65650;53.126;17.950;2022-12-18T01:50:22;29.40;;;9.10;;
76723;SDS011;65650;53.126;17.950;2022-12-18T01:52:57;24.40;;;9.40;;
76723;SDS011;65650;53.126;17.950;2022-12-18T01:55:25;15.40;;;5.30;;
76723;SDS011;65650;53.126;17.950;2022-12-18T01:57:52;21.40;;;7.50;;
76723;SDS011;65650;53.126;17.950;2022-12-18T02:00:20;38.30;;;11.90;;
76723;SDS011;65650;53.126;17.950;2022-12-18T02:02:47;23.20;;;8.00;;
76723;SDS011;65650;53.126;17.950;2022-12-18T02:05:16;16.20;;;4.70;;
76723;SDS011;65650;53.126;17.950;2022-12-18T02:10:32;25.10;;;8.20;;
76723;SDS011;65650;53.126;17.950;2022-12-18T02:15:37;25.30;;;8.10;;
76723;SDS011;65650;53.126;17.950;2022-12-18T02:18:12;60.60;;;18.80;;
76723;SDS011;65650;53.126;17.950;2022-12-18T02:20:43;50.40;;;13.60;;
76723;SDS011;65650;53.126;17.950;2022-12-18T02:23:35;32.40;;;10.50;;
76723;SDS011;65650;53.126;17.950;2022-12-18T02:26:06;29.50;;;9.90;;
76723;SDS011;65650;53.126;17.950;2022-12-18T02:28:36;32.60;;;12.50;;
76723;SDS011;65650;53.126;17.950;2022-12-18T02:31:06;44.80;;;15.50;;
76723;SDS011;65650;53.126;17.950;2022-12-18T02:33:34;23.60;;;8.50;;
76723;SDS011;65650;53.126;17.950;2022-12-18T02:36:02;29.00;;;10.40;;
76723;SDS011;65650;53.126;17.950;2022-12-18T02:38:30;23.90;;;8.80;;
76723;SDS011;65650;53.126;17.950;2022-12-18T02:40:58;26.80;;;9.30;;
76723;SDS011;65650;53.126;17.950;2022-12-18T02:43:26;18.90;;;7.90;;
76723;SDS011;65650;53.126;17.950;2022-12-18T02:45:54;20.80;;;7.80;;
76723;SDS011;65650;53.126;17.950;2022-12-18T02:48:24;26.20;;;9.50;;
76723;SDS011;65650;53.126;17.950;2022-12-18T02:50:55;23.60;;;7.70;;
76723;SDS011;65650;53.126;17.950;2022-12-18T02:53:33;27.20;;;10.40;;
76723;SDS011;65650;53.126;17.950;2022-12-18T02:56:07;30.80;;;10.80;;
76723;SDS011;65650;53.126;17.950;2022-12-18T03:01:43;28.60;;;9.90;;
76723;SDS011;65650;53.126;17.950;2022-12-18T03:04:57;28.40;;;10.40;;
76723;SDS011;65650;53.126;17.950;2022-12-18T03:07:05;32.60;;;11.30;;
76723;SDS011;65650;53.126;17.950;2022-12-18T03:09:36;25.80;;;10.60;;
76723;SDS011;65650;53.126;17.950;2022-12-18T03:12:07;21.40;;;7.40;;
76723;SDS011;65650;53.126;17.950;2022-12-18T03:15:01;29.50;;;10.40;;
76723;SDS011;65650;53.126;17.950;2022-12-18T03:17:30;24.00;;;8.00;;
76723;SDS011;65650;53.126;17.950;2022-12-18T03:19:58;23.70;;;8.20;;
76723;SDS011;65650;53.126;17.950;2022-12-18T03:22:27;20.10;;;7.40;;
76723;SDS011;65650;53.126;17.950;2022-12-18T03:24:56;20.20;;;7.90;;
76723;SDS011;65650;53.126;17.950;2022-12-18T03:27:25;23.10;;;8.30;;
76723;SDS011;65650;53.126;17.950;2022-12-18T03:30:16;19.80;;;6.40;;
76723;SDS011;65650;53.126;17.950;2022-12-18T03:32:42;31.10;;;10.50;;
76723;SDS011;65650;53.126;17.950;2022-12-18T03:35:12;26.00;;;8.60;;
76723;SDS011;65650;53.126;17.950;2022-12-18T03:37:40;22.20;;;6.70;;
76723;SDS011;65650;53.126;17.950;2022-12-18T03:40:08;25.20;;;9.80;;
76723;SDS011;65650;53.126;17.950;2022-12-18T03:45:43;20.00;;;7.30;;
76723;SDS011;65650;53.126;17.950;2022-12-18T03:48:26;14.00;;;4.80;;
76723;SDS011;65650;53.126;17.950;2022-12-18T03:50:56;17.10;;;5.80;;
76723;SDS011;65650;53.126;17.950;2022-12-18T03:55:54;20.50;;;6.90;;
76723;SDS011;65650;53.126;17.950;2022-12-18T03:58:23;18.10;;;7.40;;
76723;SDS011;65650;53.126;17.950;2022-12-18T04:00:59;22.50;;;6.90;;
76723;SDS011;65650;53.126;17.950;2022-12-18T04:03:26;20.10;;;6.20;;
76723;SDS011;65650;53.126;17.950;2022-12-18T04:05:56;21.70;;;7.50;;
76723;SDS011;65650;53.126;17.950;2022-12-18T04:08:24;22.60;;;8.20;;
76723;SDS011;65650;53.126;17.950;2022-12-18T04:11:10;22.90;;;7.90;;
76723;SDS011;65650;53.126;17.950;2022-12-18T04:13:38;24.20;;;8.10;;
76723;SDS011;65650;53.126;17.950;2022-12-18T04:16:11;24.40;;;7.80;;
76723;SDS011;65650;53.126;17.950;2022-12-18T04:18:40;27.70;;;8.60;;
76723;SDS011;65650;53.126;17.950;2022-12-18T04:21:06;26.50;;;8.70;;
76723;SDS011;65650;53.126;17.950;2022-12-18T04:23:33;25.60;;;8.70;;
76723;SDS011;65650;53.126;17.950;2022-12-18T04:25:59;31.90;;;10.10;;
76723;SDS011;65650;53.126;17.950;2022-12-18T04:28:45;24.60;;;7.80;;
76723;SDS011;65650;53.126;17.950;2022-12-18T04:31:12;19.10;;;7.10;;
76723;SDS011;65650;53.126;17.950;2022-12-18T04:33:39;22.50;;;7.90;;
76723;SDS011;65650;53.126;17.950;2022-12-18T04:36:06;24.40;;;8.10;;
76723;SDS011;65650;53.126;17.950;2022-12-18T04:38:33;21.50;;;7.60;;
76723;SDS011;65650;53.126;17.950;2022-12-18T04:41:04;20.20;;;7.70;;
76723;SDS011;65650;53.126;17.950;2022-12-18T04:43:32;24.20;;;9.20;;
76723;SDS011;65650;53.126;17.950;2022-12-18T04:46:05;24.40;;;8.70;;
76723;SDS011;65650;53.126;17.950;2022-12-18T04:48:32;26.00;;;11.50;;
76723;SDS011;65650;53.126;17.950;2022-12-18T04:50:59;22.00;;;8.20;;
76723;SDS011;65650;53.126;17.950;2022-12-18T04:53:26;28.90;;;9.60;;
76723;SDS011;65650;53.126;17.950;2022-12-18T04:58:48;24.40;;;8.20;;
76723;SDS011;65650;53.126;17.950;2022-12-18T05:01:15;27.60;;;8.90;;
76723;SDS011;65650;53.126;17.950;2022-12-18T05:03:42;23.00;;;7.90;;
76723;SDS011;65650;53.126;17.950;2022-12-18T05:06:09;29.40;;;8.90;;
76723;SDS011;65650;53.126;17.950;2022-12-18T05:08:36;23.50;;;7.90;;
76723;SDS011;65650;53.126;17.950;2022-12-18T05:11:04;25.70;;;9.00;;
76723;SDS011;65650;53.126;17.950;2022-12-18T05:13:31;30.10;;;10.10;;
76723;SDS011;65650;53.126;17.950;2022-12-18T05:15:58;27.00;;;8.40;;
76723;SDS011;65650;53.126;17.950;2022-12-18T05:18:24;18.50;;;6.00;;
76723;SDS011;65650;53.126;17.950;2022-12-18T05:20:51;22.60;;;7.40;;
76723;SDS011;65650;53.126;17.950;2022-12-18T05:23:18;26.10;;;7.80;;
76723;SDS011;65650;53.126;17.950;2022-12-18T05:28:41;20.50;;;6.90;;
76723;SDS011;65650;53.126;17.950;2022-12-18T05:31:08;30.10;;;10.20;;
76723;SDS011;65650;53.126;17.950;2022-12-18T05:33:35;27.50;;;9.30;;
76723;SDS011;65650;53.126;17.950;2022-12-18T05:36:03;22.90;;;7.00;;
76723;SDS011;65650;53.126;17.950;2022-12-18T05:38:30;27.50;;;9.30;;
76723;SDS011;65650;53.126;17.950;2022-12-18T05:40:59;25.60;;;9.00;;
76723;SDS011;65650;53.126;17.950;2022-12-18T05:43:26;20.50;;;8.00;;
76723;SDS011;65650;53.126;17.950;2022-12-18T05:45:52;29.80;;;9.90;;
76723;SDS011;65650;53.126;17.950;2022-12-18T05:48:19;19.60;;;6.00;;
76723;SDS011;65650;53.126;17.950;2022-12-18T05:50:47;17.20;;;6.10;;
76723;SDS011;65650;53.126;17.950;2022-12-18T05:53:15;25.30;;;8.90;;
76723;SDS011;65650;53.126;17.950;2022-12-18T05:55:42;38.00;;;11.40;;
76723;SDS011;65650;53.126;17.950;2022-12-18T05:58:09;33.30;;;9.60;;
76723;SDS011;65650;53.126;17.950;2022-12-18T06:00:37;24.90;;;8.30;;
76723;SDS011;65650;53.126;17.950;2022-12-18T06:03:07;32.70;;;11.40;;
76723;SDS011;65650;53.126;17.950;2022-12-18T06:05:38;31.10;;;9.70;;
76723;SDS011;65650;53.126;17.950;2022-12-18T06:08:06;20.10;;;7.30;;
76723;SDS011;65650;53.126;17.950;2022-12-18T06:10:33;23.20;;;7.50;;
76723;SDS011;65650;53.126;17.950;2022-12-18T06:12:59;21.80;;;6.10;;
76723;SDS011;65650;53.126;17.950;2022-12-18T06:15:26;16.70;;;5.70;;
76723;SDS011;65650;53.126;17.950;2022-12-18T06:17:52;15.90;;;5.90;;
76723;SDS011;65650;53.126;17.950;2022-12-18T06:20:19;30.90;;;9.50;;
76723;SDS011;65650;53.126;17.950;2022-12-18T06:22:45;19.60;;;4.90;;
76723;SDS011;65650;53.126;17.950;2022-12-18T06:25:12;20.00;;;6.30;;
76723;SDS011;65650;53.126;17.950;2022-12-18T06:27:38;33.20;;;9.30;;
76723;SDS011;65650;53.126;17.950;2022-12-18T06:30:05;24.10;;;8.50;;
76723;SDS011;65650;53.126;17.950;2022-12-18T06:32:32;21.40;;;5.70;;
76723;SDS011;65650;53.126;17.950;2022-12-18T06:34:59;25.30;;;7.90;;
76723;SDS011;65650;53.126;17.950;2022-12-18T06:37:25;27.00;;;9.10;;
76723;SDS011;65650;53.126;17.950;2022-12-18T06:39:53;24.80;;;7.80;;
76723;SDS011;65650;53.126;17.950;2022-12-18T06:42:21;21.70;;;6.80;;
76723;SDS011;65650;53.126;17.950;2022-12-18T06:44:50;28.90;;;8.90;;
76723;SDS011;65650;53.126;17.950;2022-12-18T06:47:16;30.80;;;9.60;;
76723;SDS011;65650;53.126;17.950;2022-12-18T06:49:43;29.00;;;8.70;;
76723;SDS011;65650;53.126;17.950;2022-12-18T06:52:09;23.40;;;6.70;;
76723;SDS011;65650;53.126;17.950;2022-12-18T06:54:36;27.20;;;9.10;;
76723;SDS011;65650;53.126;17.950;2022-12-18T06:57:02;27.00;;;8.40;;
76723;SDS011;65650;53.126;17.950;2022-12-18T06:59:29;34.20;;;11.10;;
76723;SDS011;65650;53.126;17.950;2022-12-18T07:01:55;34.40;;;11.20;;
76723;SDS011;65650;53.126;17.950;2022-12-18T07:04:22;36.10;;;10.10;;
76723;SDS011;65650;53.126;17.950;2022-12-18T07:06:48;24.10;;;6.10;;
76723;SDS011;65650;53.126;17.950;2022-12-18T07:09:15;23.40;;;7.60;;
76723;SDS011;65650;53.126;17.950;2022-12-18T07:11:41;23.70;;;7.40;;
76723;SDS011;65650;53.126;17.950;2022-12-18T07:14:08;21.60;;;6.50;;
76723;SDS011;65650;53.126;17.950;2022-12-18T07:16:35;33.20;;;12.10;;
76723;SDS011;65650;53.126;17.950;2022-12-18T07:19:01;13.30;;;4.70;;
76723;SDS011;65650;53.126;17.950;2022-12-18T07:21:28;25.30;;;8.70;;
76723;SDS011;65650;53.126;17.950;2022-12-18T07:23:55;30.90;;;9.90;;
76723;SDS011;65650;53.126;17.950;2022-12-18T07:26:21;35.40;;;10.20;;
76723;SDS011;65650;53.126;17.950;2022-12-18T07:28:48;30.30;;;8.60;;
76723;SDS011;65650;53.126;17.950;2022-12-18T07:31:17;29.10;;;9.00;;
76723;SDS011;65650;53.126;17.950;2022-12-18T07:33:44;31.00;;;9.50;;
76723;SDS011;65650;53.126;17.950;2022-12-18T07:36:11;29.20;;;9.70;;
76723;SDS011;65650;53.126;17.950;2022-12-18T07:38:37;27.80;;;9.30;;
76723;SDS011;65650;53.126;17.950;2022-12-18T07:41:05;21.70;;;6.60;;
76723;SDS011;65650;53.126;17.950;2022-12-18T07:43:33;17.80;;;6.20;;
76723;SDS011;65650;53.126;17.950;2022-12-18T07:46:00;30.90;;;9.40;;
76723;SDS011;65650;53.126;17.950;2022-12-18T07:48:28;19.10;;;7.10;;
76723;SDS011;65650;53.126;17.950;2022-12-18T07:51:05;19.20;;;6.60;;
76723;SDS011;65650;53.126;17.950;2022-12-18T07:53:32;15.10;;;5.40;;
76723;SDS011;65650;53.126;17.950;2022-12-18T07:56:00;29.90;;;9.00;;
76723;SDS011;65650;53.126;17.950;2022-12-18T07:58:26;52.60;;;17.00;;
76723;SDS011;65650;53.126;17.950;2022-12-18T08:00:53;21.50;;;7.50;;
76723;SDS011;65650;53.126;17.950;2022-12-18T08:03:19;22.60;;;8.30;;
76723;SDS011;65650;53.126;17.950;2022-12-18T08:05:46;27.20;;;10.20;;
76723;SDS011;65650;53.126;17.950;2022-12-18T08:08:15;15.60;;;5.50;;
76723;SDS011;65650;53.126;17.950;2022-12-18T08:10:41;13.60;;;5.30;;
76723;SDS011;65650;53.126;17.950;2022-12-18T08:13:08;19.90;;;6.60;;
76723;SDS011;65650;53.126;17.950;2022-12-18T08:15:34;20.60;;;6.80;;
76723;SDS011;65650;53.126;17.950;2022-12-18T08:18:01;27.40;;;9.00;;
76723;SDS011;65650;53.126;17.950;2022-12-18T08:20:27;21.80;;;7.10;;
76723;SDS011;65650;53.126;17.950;2022-12-18T08:22:54;24.40;;;8.50;;
76723;SDS011;65650;53.126;17.950;2022-12-18T08:25:21;18.80;;;6.50;;
76723;SDS011;65650;53.126;17.950;2022-12-18T08:27:47;24.10;;;8.20;;
76723;SDS011;65650;53.126;17.950;2022-12-18T08:30:13;25.80;;;8.90;;
76723;SDS011;65650;53.126;17.950;2022-12-18T08:32:40;30.60;;;10.20;;
76723;SDS011;65650;53.126;17.950;2022-12-18T08:35:06;31.90;;;10.00;;
76723;SDS011;65650;53.126;17.950;2022-12-18T08:37:34;16.50;;;5.50;;
76723;SDS011;65650;53.126;17.950;2022-12-18T08:40:01;22.70;;;7.20;;
76723;SDS011;65650;53.126;17.950;2022-12-18T08:42:27;17.30;;;6.90;;
76723;SDS011;65650;53.126;17.950;2022-12-18T08:45:12;24.30;;;8.60;;
76723;SDS011;65650;53.126;17.950;2022-12-18T08:47:40;16.90;;;5.20;;
76723;SDS011;65650;53.126;17.950;2022-12-18T08:50:06;22.60;;;6.70;;
76723;SDS011;65650;53.126;17.950;2022-12-18T08:52:33;12.50;;;4.30;;
76723;SDS011;65650;53.126;17.950;2022-12-18T08:54:59;11.30;;;5.10;;
76723;SDS011;65650;53.126;17.950;2022-12-18T08:57:26;15.90;;;5.60;;
76723;SDS011;65650;53.126;17.950;2022-12-18T08:59:53;20.00;;;6.90;;
76723;SDS011;65650;53.126;17.950;2022-12-18T09:02:19;21.80;;;7.70;;
76723;SDS011;65650;53.126;17.950;2022-12-18T09:04:47;22.20;;;7.30;;
76723;SDS011;65650;53.126;17.950;2022-12-18T09:07:14;12.70;;;3.90;;
76723;SDS011;65650;53.126;17.950;2022-12-18T09:09:41;19.00;;;5.80;;
76723;SDS011;65650;53.126;17.950;2022-12-18T09:12:07;22.60;;;7.90;;
76723;SDS011;65650;53.126;17.950;2022-12-18T09:14:41;29.10;;;8.30;;
76723;SDS011;65650;53.126;17.950;2022-12-18T09:17:08;8.40;;;2.80;;
76723;SDS011;65650;53.126;17.950;2022-12-18T09:19:34;14.80;;;4.90;;
76723;SDS011;65650;53.126;17.950;2022-12-18T09:22:01;33.40;;;11.70;;
76723;SDS011;65650;53.126;17.950;2022-12-18T09:24:27;33.00;;;9.50;;
76723;SDS011;65650;53.126;17.950;2022-12-18T09:26:53;37.40;;;11.70;;
76723;SDS011;65650;53.126;17.950;2022-12-18T09:29:23;45.00;;;14.00;;
76723;SDS011;65650;53.126;17.950;2022-12-18T09:31:50;36.60;;;11.50;;
76723;SDS011;65650;53.126;17.950;2022-12-18T09:34:17;31.60;;;10.30;;
76723;SDS011;65650;53.126;17.950;2022-12-18T09:36:43;23.40;;;7.90;;
76723;SDS011;65650;53.126;17.950;2022-12-18T09:39:10;16.30;;;5.40;;
76723;SDS011;65650;53.126;17.950;2022-12-18T09:41:48;30.00;;;9.00;;
76723;SDS011;65650;53.126;17.950;2022-12-18T09:44:21;36.20;;;12.90;;
76723;SDS011;65650;53.126;17.950;2022-12-18T09:47:35;38.70;;;12.10;;
76723;SDS011;65650;53.126;17.950;2022-12-18T09:49:37;26.20;;;9.30;;
76723;SDS011;65650;53.126;17.950;2022-12-18T09:52:11;31.20;;;9.50;;
76723;SDS011;65650;53.126;17.950;2022-12-18T09:54:38;21.30;;;8.40;;
76723;SDS011;65650;53.126;17.950;2022-12-18T09:57:22;12.50;;;4.20;;
76723;SDS011;65650;53.126;17.950;2022-12-18T09:59:51;20.10;;;5.30;;
76723;SDS011;65650;53.126;17.950;2022-12-18T10:02:20;19.20;;;7.50;;
76723;SDS011;65650;53.126;17.950;2022-12-18T10:04:56;26.60;;;8.20;;
76723;SDS011;65650;53.126;17.950;2022-12-18T10:15:36;18.40;;;5.70;;
76723;SDS011;65650;53.126;17.950;2022-12-18T10:18:18;25.40;;;7.70;;
76723;SDS011;65650;53.126;17.950;2022-12-18T10:20:51;23.80;;;6.90;;
76723;SDS011;65650;53.126;17.950;2022-12-18T10:23:38;25.10;;;8.30;;
76723;SDS011;65650;53.126;17.950;2022-12-18T10:26:08;38.60;;;12.30;;
76723;SDS011;65650;53.126;17.950;2022-12-18T10:28:38;16.90;;;6.20;;
76723;SDS011;65650;53.126;17.950;2022-12-18T10:31:16;22.40;;;7.90;;
76723;SDS011;65650;53.126;17.950;2022-12-18T10:33:43;28.70;;;9.40;;
76723;SDS011;65650;53.126;17.950;2022-12-18T10:36:09;22.00;;;8.30;;
76723;SDS011;65650;53.126;17.950;2022-12-18T10:38:36;28.60;;;8.70;;
76723;SDS011;65650;53.126;17.950;2022-12-18T10:44:11;20.20;;;5.60;;
76723;SDS011;65650;53.126;17.950;2022-12-18T10:46:38;26.40;;;8.40;;
76723;SDS011;65650;53.126;17.950;2022-12-18T10:49:05;29.10;;;10.50;;
76723;SDS011;65650;53.126;17.950;2022-12-18T10:51:35;15.00;;;4.60;;
76723;SDS011;65650;53.126;17.950;2022-12-18T10:54:04;29.20;;;9.40;;
76723;SDS011;65650;53.126;17.950;2022-12-18T10:56:32;27.20;;;8.10;;
76723;SDS011;65650;53.126;17.950;2022-12-18T10:59:05;21.10;;;5.30;;
76723;SDS011;65650;53.126;17.950;2022-12-18T11:01:52;29.80;;;9.60;;
76723;SDS011;65650;53.126;17.950;2022-12-18T11:06:53;22.10;;;8.00;;
76723;SDS011;65650;53.126;17.950;2022-12-18T11:09:21;21.70;;;6.10;;
76723;SDS011;65650;53.126;17.950;2022-12-18T11:11:49;36.70;;;10.60;;
76723;SDS011;65650;53.126;17.950;2022-12-18T11:14:21;32.10;;;9.60;;
76723;SDS011;65650;53.126;17.950;2022-12-18T11:16:48;34.50;;;10.50;;
76723;SDS011;65650;53.126;17.950;2022-12-18T11:19:20;28.60;;;9.40;;
76723;SDS011;65650;53.126;17.950;2022-12-18T11:21:48;24.10;;;7.30;;
76723;SDS011;65650;53.126;17.950;2022-12-18T11:24:28;50.60;;;13.70;;
76723;SDS011;65650;53.126;17.950;2022-12-18T11:26:57;33.20;;;11.30;;
76723;SDS011;65650;53.126;17.950;2022-12-18T11:29:28;43.80;;;13.10;;
76723;SDS011;65650;53.126;17.950;2022-12-18T11:34:47;18.40;;;6.90;;
76723;SDS011;65650;53.126;17.950;2022-12-18T11:37:15;42.00;;;12.60;;
76723;SDS011;65650;53.126;17.950;2022-12-18T11:39:46;38.30;;;11.90;;
76723;SDS011;65650;53.126;17.950;2022-12-18T11:42:17;31.70;;;10.90;;
76723;SDS011;65650;53.126;17.950;2022-12-18T11:49:59;38.20;;;11.00;;
76723;SDS011;65650;53.126;17.950;2022-12-18T11:52:38;36.40;;;10.70;;
76723;SDS011;65650;53.126;17.950;2022-12-18T11:55:10;42.10;;;11.70;;
76723;SDS011;65650;53.126;17.950;2022-12-18T12:00:20;38.20;;;12.20;;
76723;SDS011;65650;53.126;17.950;2022-12-18T12:03:05;33.50;;;10.00;;
76723;SDS011;65650;53.126;17.950;2022-12-18T12:21:39;28.10;;;9.40;;
76723;SDS011;65650;53.126;17.950;2022-12-18T12:24:11;42.80;;;13.20;;
76723;SDS011;65650;53.126;17.950;2022-12-18T12:34:55;48.60;;;14.40;;
76723;SDS011;65650;53.126;17.950;2022-12-18T12:40:06;37.10;;;11.20;;
76723;SDS011;65650;53.126;17.950;2022-12-18T12:42:34;41.60;;;13.00;;
76723;SDS011;65650;53.126;17.950;2022-12-18T12:45:26;37.30;;;11.30;;
76723;SDS011;65650;53.126;17.950;2022-12-18T12:47:53;28.20;;;7.00;;
76723;SDS011;65650;53.126;17.950;2022-12-18T12:50:20;38.00;;;10.50;;
76723;SDS011;65650;53.126;17.950;2022-12-18T12:52:53;48.80;;;13.00;;
76723;SDS011;65650;53.126;17.950;2022-12-18T12:55:24;36.50;;;10.30;;
76723;SDS011;65650;53.126;17.950;2022-12-18T13:00:39;47.50;;;14.00;;
76723;SDS011;65650;53.126;17.950;2022-12-18T13:03:23;56.10;;;16.10;;
76723;SDS011;65650;53.126;17.950;2022-12-18T13:05:54;42.60;;;11.90;;
76723;SDS011;65650;53.126;17.950;2022-12-18T13:08:25;62.30;;;19.00;;
76723;SDS011;65650;53.126;17.950;2022-12-18T13:10:54;67.40;;;17.60;;
76723;SDS011;65650;53.126;17.950;2022-12-18T13:13:47;51.80;;;14.30;;
76723;SDS011;65650;53.126;17.950;2022-12-18T13:16:14;67.80;;;16.00;;
76723;SDS011;65650;53.126;17.950;2022-12-18T13:18:51;52.60;;;12.40;;
76723;SDS011;65650;53.126;17.950;2022-12-18T13:21:28;43.10;;;11.80;;
76723;SDS011;65650;53.126;17.950;2022-12-18T13:23:55;46.40;;;13.70;;
76723;SDS011;65650;53.126;17.950;2022-12-18T13:28:52;45.80;;;14.00;;
76723;SDS011;65650;53.126;17.950;2022-12-18T13:34:21;28.10;;;9.50;;
76723;SDS011;65650;53.126;17.950;2022-12-18T13:36:48;32.10;;;11.70;;
76723;SDS011;65650;53.126;17.950;2022-12-18T13:39:21;53.30;;;16.20;;
76723;SDS011;65650;53.126;17.950;2022-12-18T13:41:49;51.80;;;19.00;;
76723;SDS011;65650;53.126;17.950;2022-12-18T13:46:52;54.40;;;16.30;;
76723;SDS011;65650;53.126;17.950;2022-12-18T13:51:53;48.30;;;15.50;;
76723;SDS011;65650;53.126;17.950;2022-12-18T13:54:35;12.70;;;4.50;;
76723;SDS011;65650;53.126;17.950;2022-12-18T13:57:03;39.40;;;12.40;;
76723;SDS011;65650;53.126;17.950;2022-12-18T13:59:33;36.30;;;11.80;;
76723;SDS011;65650;53.126;17.950;2022-12-18T14:02:05;42.60;;;12.50;;
76723;SDS011;65650;53.126;17.950;2022-12-18T14:04:33;44.30;;;12.40;;
76723;SDS011;65650;53.126;17.950;2022-12-18T14:07:03;46.90;;;12.30;;
76723;SDS011;65650;53.126;17.950;2022-12-18T14:09:34;47.80;;;13.40;;
76723;SDS011;65650;53.126;17.950;2022-12-18T14:12:02;19.90;;;6.20;;
76723;SDS011;65650;53.126;17.950;2022-12-18T14:14:48;47.10;;;14.90;;
76723;SDS011;65650;53.126;17.950;2022-12-18T14:17:17;29.60;;;10.30;;
76723;SDS011;65650;53.126;17.950;2022-12-18T14:19:47;37.90;;;9.80;;
76723;SDS011;65650;53.126;17.950;2022-12-18T14:22:16;49.80;;;15.70;;
76723;SDS011;65650;53.126;17.950;2022-12-18T14:24:43;72.30;;;25.10;;
76723;SDS011;65650;53.126;17.950;2022-12-18T14:27:25;45.00;;;14.20;;
76723;SDS011;65650;53.126;17.950;2022-12-18T14:29:52;50.20;;;17.30;;
76723;SDS011;65650;53.126;17.950;2022-12-18T14:32:20;37.70;;;9.90;;
76723;SDS011;65650;53.126;17.950;2022-12-18T14:34:47;48.90;;;13.20;;
76723;SDS011;65650;53.126;17.950;2022-12-18T14:37:16;34.50;;;11.40;;
76723;SDS011;65650;53.126;17.950;2022-12-18T14:42:20;29.30;;;9.20;;
76723;SDS011;65650;53.126;17.950;2022-12-18T14:44:46;39.10;;;13.00;;
76723;SDS011;65650;53.126;17.950;2022-12-18T14:47:16;49.10;;;15.50;;
76723;SDS011;65650;53.126;17.950;2022-12-18T14:49:44;52.20;;;15.70;;
76723;SDS011;65650;53.126;17.950;2022-12-18T14:52:22;52.90;;;15.30;;
76723;SDS011;65650;53.126;17.950;2022-12-18T14:54:50;53.60;;;15.80;;
76723;SDS011;65650;53.126;17.950;2022-12-18T14:59:50;48.30;;;14.70;;
76723;SDS011;65650;53.126;17.950;2022-12-18T15:04:46;44.80;;;14.00;;
76723;SDS011;65650;53.126;17.950;2022-12-18T15:07:14;46.30;;;14.20;;
76723;SDS011;65650;53.126;17.950;2022-12-18T15:10:09;46.40;;;13.70;;
76723;SDS011;65650;53.126;17.950;2022-12-18T15:14:55;39.00;;;12.70;;
76723;SDS011;65650;53.126;17.950;2022-12-18T15:17:22;42.00;;;11.30;;
76723;SDS011;65650;53.126;17.950;2022-12-18T15:19:50;33.70;;;11.10;;
76723;SDS011;65650;53.126;17.950;2022-12-18T15:24:43;33.80;;;9.00;;
76723;SDS011;65650;53.126;17.950;2022-12-18T15:32:35;46.50;;;13.20;;
76723;SDS011;65650;53.126;17.950;2022-12-18T15:35:03;36.50;;;9.90;;
76723;SDS011;65650;53.126;17.950;2022-12-18T15:37:34;23.20;;;5.00;;
76723;SDS011;65650;53.126;17.950;2022-12-18T15:40:00;31.60;;;9.40;;
76723;SDS011;65650;53.126;17.950;2022-12-18T15:42:28;37.70;;;11.90;;
76723;SDS011;65650;53.126;17.950;2022-12-18T15:45:14;44.80;;;12.80;;
76723;SDS011;65650;53.126;17.950;2022-12-18T15:47:40;43.60;;;13.20;;
76723;SDS011;65650;53.126;17.950;2022-12-18T15:50:08;49.70;;;14.70;;
76723;SDS011;65650;53.126;17.950;2022-12-18T15:52:45;35.60;;;11.90;;
76723;SDS011;65650;53.126;17.950;2022-12-18T15:55:12;45.50;;;13.80;;
76723;SDS011;65650;53.126;17.950;2022-12-18T15:57:57;35.00;;;10.40;;
76723;SDS011;65650;53.126;17.950;2022-12-18T16:00:24;44.50;;;13.50;;
76723;SDS011;65650;53.126;17.950;2022-12-18T16:02:50;50.50;;;16.40;;
76723;SDS011;65650;53.126;17.950;2022-12-18T16:05:18;43.50;;;13.70;;
76723;SDS011;65650;53.126;17.950;2022-12-18T16:07:45;50.90;;;16.10;;
76723;SDS011;65650;53.126;17.950;2022-12-18T16:10:11;35.20;;;10.80;;
76723;SDS011;65650;53.126;17.950;2022-12-18T16:12:38;61.90;;;16.10;;
76723;SDS011;65650;53.126;17.950;2022-12-18T16:15:04;64.10;;;17.90;;
76723;SDS011;65650;53.126;17.950;2022-12-18T16:17:31;50.00;;;15.50;;